sensor_id;sensor_type;location;lat;lon;timestamp;pressure;altitude;pressure_sealevel;temperature;humidity
43814;BME280;29669;55.706;37.656;2023-04-27T00:01:57;99226.69;;;10.64;nan
43814;BME280;29669;55.706;37.656;2023-04-27T00:04:25;99227.88;;;10.61;nan
43814;BME280;29669;55.706;37.656;2023-04-27T00:06:53;99221.25;;;10.59;nan
43814;BME280;29669;55.706;37.656;2023-04-27T00:09:21;99221.41;;;10.57;nan
43814;BME280;29669;55.706;37.656;2023-04-27T00:11:49;99223.38;;;10.55;nan
43814;BME280;29669;55.706;37.656;2023-04-27T00:14:16;99225.53;;;10.52;nan
43814;BME280;29669;55.706;37.656;2023-04-27T00:16:44;99232.31;;;10.53;nan
43814;BME280;29669;55.706;37.656;2023-04-27T00:19:12;99229.91;;;10.51;nan
43814;BME280;29669;55.706;37.656;2023-04-27T00:21:41;99227.31;;;10.51;nan
43814;BME280;29669;55.706;37.656;2023-04-27T00:24:08;99233.81;;;10.47;nan
43814;BME280;29669;55.706;37.656;2023-04-27T00:26:36;99236.25;;;10.49;nan
43814;BME280;29669;55.706;37.656;2023-04-27T00:29:04;99240.66;;;10.48;nan
43814;BME280;29669;55.706;37.656;2023-04-27T00:31:31;99239.84;;;10.48;nan
43814;BME280;29669;55.706;37.656;2023-04-27T00:33:59;99237.13;;;10.41;nan
43814;BME280;29669;55.706;37.656;2023-04-27T00:36:27;99234.88;;;10.38;nan
43814;BME280;29669;55.706;37.656;2023-04-27T00:38:54;99234.59;;;10.33;nan
43814;BME280;29669;55.706;37.656;2023-04-27T00:41:24;99234.16;;;10.29;nan
43814;BME280;29669;55.706;37.656;2023-04-27T00:43:51;99231.56;;;10.29;nan
43814;BME280;29669;55.706;37.656;2023-04-27T00:46:20;99225.88;;;10.26;nan
43814;BME280;29669;55.706;37.656;2023-04-27T00:48:48;99234.31;;;10.28;nan
43814;BME280;29669;55.706;37.656;2023-04-27T00:51:15;99232.06;;;10.25;nan
43814;BME280;29669;55.706;37.656;2023-04-27T00:53:43;99227.50;;;10.27;nan
43814;BME280;29669;55.706;37.656;2023-04-27T00:56:11;99221.34;;;10.28;nan
43814;BME280;29669;55.706;37.656;2023-04-27T00:58:39;99232.78;;;10.33;nan
43814;BME280;29669;55.706;37.656;2023-04-27T01:01:08;99225.81;;;10.34;nan
43814;BME280;29669;55.706;37.656;2023-04-27T01:03:37;99225.31;;;10.38;nan
43814;BME280;29669;55.706;37.656;2023-04-27T01:06:05;99230.50;;;10.38;nan
43814;BME280;29669;55.706;37.656;2023-04-27T01:08:35;99232.09;;;10.39;nan
43814;BME280;29669;55.706;37.656;2023-04-27T01:11:02;99234.19;;;10.44;nan
43814;BME280;29669;55.706;37.656;2023-04-27T01:13:30;99239.47;;;10.51;nan
43814;BME280;29669;55.706;37.656;2023-04-27T01:15:58;99234.41;;;10.57;nan
43814;BME280;29669;55.706;37.656;2023-04-27T01:18:26;99222.50;;;10.63;nan
43814;BME280;29669;55.706;37.656;2023-04-27T01:20:55;99227.00;;;10.69;nan
43814;BME280;29669;55.706;37.656;2023-04-27T01:23:24;99227.25;;;10.74;nan
43814;BME280;29669;55.706;37.656;2023-04-27T01:25:52;99227.44;;;10.72;nan
43814;BME280;29669;55.706;37.656;2023-04-27T01:28:20;99229.84;;;10.74;nan
43814;BME280;29669;55.706;37.656;2023-04-27T01:30:48;99226.81;;;10.70;nan
43814;BME280;29669;55.706;37.656;2023-04-27T01:33:15;99233.34;;;10.66;nan
43814;BME280;29669;55.706;37.656;2023-04-27T01:35:43;99228.84;;;10.60;nan
43814;BME280;29669;55.706;37.656;2023-04-27T01:38:11;99234.72;;;10.54;nan
43814;BME280;29669;55.706;37.656;2023-04-27T01:40:39;99229.28;;;10.49;nan
43814;BME280;29669;55.706;37.656;2023-04-27T01:43:07;99232.56;;;10.43;nan
43814;BME280;29669;55.706;37.656;2023-04-27T01:45:34;99228.88;;;10.37;nan
43814;BME280;29669;55.706;37.656;2023-04-27T01:48:02;99228.41;;;10.34;nan
43814;BME280;29669;55.706;37.656;2023-04-27T01:50:30;99226.69;;;10.26;nan
43814;BME280;29669;55.706;37.656;2023-04-27T01:52:58;99230.63;;;10.22;nan
43814;BME280;29669;55.706;37.656;2023-04-27T01:55:28;99225.44;;;10.22;nan
43814;BME280;29669;55.706;37.656;2023-04-27T01:57:55;99234.38;;;10.20;nan
43814;BME280;29669;55.706;37.656;2023-04-27T02:00:23;99226.94;;;10.17;nan
43814;BME280;29669;55.706;37.656;2023-04-27T02:02:51;99246.53;;;10.19;nan
43814;BME280;29669;55.706;37.656;2023-04-27T02:05:23;99238.94;;;10.18;nan
43814;BME280;29669;55.706;37.656;2023-04-27T02:07:53;99241.34;;;10.19;nan
43814;BME280;29669;55.706;37.656;2023-04-27T02:10:22;99244.56;;;10.21;nan
43814;BME280;29669;55.706;37.656;2023-04-27T02:12:54;99242.44;;;10.25;nan
43814;BME280;29669;55.706;37.656;2023-04-27T02:15:23;99246.31;;;10.29;nan
43814;BME280;29669;55.706;37.656;2023-04-27T02:17:51;99258.72;;;10.33;nan
43814;BME280;29669;55.706;37.656;2023-04-27T02:20:19;99256.91;;;10.42;nan
43814;BME280;29669;55.706;37.656;2023-04-27T02:22:47;99264.00;;;10.48;nan
43814;BME280;29669;55.706;37.656;2023-04-27T02:25:14;99267.84;;;10.52;nan
43814;BME280;29669;55.706;37.656;2023-04-27T02:27:42;99262.66;;;10.52;nan
43814;BME280;29669;55.706;37.656;2023-04-27T02:30:10;99265.72;;;10.56;nan
43814;BME280;29669;55.706;37.656;2023-04-27T02:32:38;99267.50;;;10.55;nan
43814;BME280;29669;55.706;37.656;2023-04-27T02:35:07;99259.72;;;10.55;nan
43814;BME280;29669;55.706;37.656;2023-04-27T02:37:35;99265.53;;;10.57;nan
43814;BME280;29669;55.706;37.656;2023-04-27T02:40:03;99270.38;;;10.60;nan
43814;BME280;29669;55.706;37.656;2023-04-27T02:42:34;99269.84;;;10.65;nan
43814;BME280;29669;55.706;37.656;2023-04-27T02:45:02;99263.34;;;10.69;nan
43814;BME280;29669;55.706;37.656;2023-04-27T02:47:31;99280.25;;;10.79;nan
43814;BME280;29669;55.706;37.656;2023-04-27T02:49:59;99272.78;;;10.84;nan
43814;BME280;29669;55.706;37.656;2023-04-27T02:52:27;99282.44;;;10.90;nan
43814;BME280;29669;55.706;37.656;2023-04-27T02:54:55;99286.91;;;10.96;nan
43814;BME280;29669;55.706;37.656;2023-04-27T02:57:22;99289.00;;;11.01;nan
43814;BME280;29669;55.706;37.656;2023-04-27T02:59:50;99291.06;;;11.05;nan
43814;BME280;29669;55.706;37.656;2023-04-27T03:02:18;99289.81;;;11.16;nan
43814;BME280;29669;55.706;37.656;2023-04-27T03:04:46;99286.97;;;11.25;nan
43814;BME280;29669;55.706;37.656;2023-04-27T03:07:13;99290.25;;;11.34;nan
43814;BME280;29669;55.706;37.656;2023-04-27T03:09:41;99296.00;;;11.44;nan
43814;BME280;29669;55.706;37.656;2023-04-27T03:12:09;99301.75;;;11.54;nan
43814;BME280;29669;55.706;37.656;2023-04-27T03:14:37;99298.25;;;11.62;nan
43814;BME280;29669;55.706;37.656;2023-04-27T03:17:05;99295.41;;;11.71;nan
43814;BME280;29669;55.706;37.656;2023-04-27T03:19:32;99297.72;;;11.81;nan
43814;BME280;29669;55.706;37.656;2023-04-27T03:22:00;99307.03;;;11.90;nan
43814;BME280;29669;55.706;37.656;2023-04-27T03:24:28;99302.69;;;11.97;nan
43814;BME280;29669;55.706;37.656;2023-04-27T03:26:56;99303.56;;;12.04;nan
43814;BME280;29669;55.706;37.656;2023-04-27T03:29:24;99302.50;;;12.13;nan
43814;BME280;29669;55.706;37.656;2023-04-27T03:31:52;99301.56;;;12.20;nan
43814;BME280;29669;55.706;37.656;2023-04-27T03:34:20;99312.84;;;12.27;nan
43814;BME280;29669;55.706;37.656;2023-04-27T03:36:48;99319.94;;;12.34;nan
43814;BME280;29669;55.706;37.656;2023-04-27T03:39:16;99321.59;;;12.41;nan
43814;BME280;29669;55.706;37.656;2023-04-27T03:41:44;99331.88;;;12.49;nan
43814;BME280;29669;55.706;37.656;2023-04-27T03:44:12;99330.94;;;12.57;nan
43814;BME280;29669;55.706;37.656;2023-04-27T03:46:41;99328.41;;;12.63;nan
43814;BME280;29669;55.706;37.656;2023-04-27T03:49:09;99323.09;;;12.71;nan
43814;BME280;29669;55.706;37.656;2023-04-27T03:51:36;99320.53;;;12.78;nan
43814;BME280;29669;55.706;37.656;2023-04-27T03:54:08;99322.63;;;12.89;nan
43814;BME280;29669;55.706;37.656;2023-04-27T03:56:36;99328.50;;;12.97;nan
43814;BME280;29669;55.706;37.656;2023-04-27T03:59:04;99326.78;;;13.04;nan
43814;BME280;29669;55.706;37.656;2023-04-27T04:01:35;99328.66;;;13.10;nan
43814;BME280;29669;55.706;37.656;2023-04-27T04:04:03;99332.72;;;13.19;nan
43814;BME280;29669;55.706;37.656;2023-04-27T04:06:31;99329.78;;;13.29;nan
43814;BME280;29669;55.706;37.656;2023-04-27T04:08:59;99331.22;;;13.38;nan
43814;BME280;29669;55.706;37.656;2023-04-27T04:11:27;99329.28;;;13.47;nan
43814;BME280;29669;55.706;37.656;2023-04-27T04:13:57;99330.94;;;13.54;nan
43814;BME280;29669;55.706;37.656;2023-04-27T04:16:25;99333.81;;;13.66;nan
43814;BME280;29669;55.706;37.656;2023-04-27T04:18:53;99341.50;;;13.74;nan
43814;BME280;29669;55.706;37.656;2023-04-27T04:21:21;99343.91;;;13.82;nan
43814;BME280;29669;55.706;37.656;2023-04-27T04:23:48;99345.19;;;13.92;nan
43814;BME280;29669;55.706;37.656;2023-04-27T04:26:18;99335.38;;;14.01;nan
43814;BME280;29669;55.706;37.656;2023-04-27T04:28:47;99342.84;;;14.10;nan
43814;BME280;29669;55.706;37.656;2023-04-27T04:31:15;99346.69;;;14.21;nan
43814;BME280;29669;55.706;37.656;2023-04-27T04:33:44;99341.69;;;14.26;nan
43814;BME280;29669;55.706;37.656;2023-04-27T04:36:14;99352.97;;;14.33;nan
43814;BME280;29669;55.706;37.656;2023-04-27T04:38:42;99353.22;;;14.38;nan
43814;BME280;29669;55.706;37.656;2023-04-27T04:41:10;99351.63;;;14.44;nan
43814;BME280;29669;55.706;37.656;2023-04-27T04:43:38;99351.41;;;14.45;nan
43814;BME280;29669;55.706;37.656;2023-04-27T04:46:06;99358.47;;;14.51;nan
43814;BME280;29669;55.706;37.656;2023-04-27T04:48:33;99355.03;;;14.57;nan
43814;BME280;29669;55.706;37.656;2023-04-27T04:51:04;99361.50;;;14.68;nan
43814;BME280;29669;55.706;37.656;2023-04-27T04:53:33;99348.44;;;14.74;nan
43814;BME280;29669;55.706;37.656;2023-04-27T04:56:11;99359.72;;;14.81;nan
43814;BME280;29669;55.706;37.656;2023-04-27T04:58:39;99355.91;;;14.90;nan
43814;BME280;29669;55.706;37.656;2023-04-27T05:01:07;99362.31;;;15.01;nan
43814;BME280;29669;55.706;37.656;2023-04-27T05:03:35;99362.13;;;15.09;nan
43814;BME280;29669;55.706;37.656;2023-04-27T05:06:04;99365.75;;;15.15;nan
43814;BME280;29669;55.706;37.656;2023-04-27T05:08:32;99367.13;;;15.24;nan
43814;BME280;29669;55.706;37.656;2023-04-27T05:10:59;99364.31;;;15.32;nan
43814;BME280;29669;55.706;37.656;2023-04-27T05:13:27;99364.13;;;15.40;nan
43814;BME280;29669;55.706;37.656;2023-04-27T05:15:56;99368.16;;;15.49;nan
43814;BME280;29669;55.706;37.656;2023-04-27T05:18:24;99374.78;;;15.58;nan
43814;BME280;29669;55.706;37.656;2023-04-27T05:20:52;99366.13;;;15.64;nan
43814;BME280;29669;55.706;37.656;2023-04-27T05:23:19;99372.56;;;15.68;nan
43814;BME280;29669;55.706;37.656;2023-04-27T05:25:47;99372.56;;;15.74;nan
43814;BME280;29669;55.706;37.656;2023-04-27T05:28:15;99370.31;;;15.78;nan
43814;BME280;29669;55.706;37.656;2023-04-27T05:30:43;99380.16;;;15.89;nan
43814;BME280;29669;55.706;37.656;2023-04-27T05:33:11;99376.72;;;15.95;nan
43814;BME280;29669;55.706;37.656;2023-04-27T05:35:39;99373.66;;;16.05;nan
43814;BME280;29669;55.706;37.656;2023-04-27T05:38:06;99371.59;;;16.13;nan
43814;BME280;29669;55.706;37.656;2023-04-27T05:40:34;99371.00;;;16.18;nan
43814;BME280;29669;55.706;37.656;2023-04-27T05:43:02;99375.78;;;16.27;nan
43814;BME280;29669;55.706;37.656;2023-04-27T05:45:32;99372.31;;;16.33;nan
43814;BME280;29669;55.706;37.656;2023-04-27T05:47:59;99376.13;;;16.37;nan
43814;BME280;29669;55.706;37.656;2023-04-27T05:50:27;99376.91;;;16.44;nan
43814;BME280;29669;55.706;37.656;2023-04-27T05:52:56;99372.44;;;16.51;nan
43814;BME280;29669;55.706;37.656;2023-04-27T05:55:23;99370.38;;;16.60;nan
43814;BME280;29669;55.706;37.656;2023-04-27T05:57:51;99369.31;;;16.67;nan
43814;BME280;29669;55.706;37.656;2023-04-27T06:00:33;99372.72;;;16.74;nan
43814;BME280;29669;55.706;37.656;2023-04-27T06:03:01;99364.22;;;16.79;nan
43814;BME280;29669;55.706;37.656;2023-04-27T06:05:29;99364.97;;;16.86;nan
43814;BME280;29669;55.706;37.656;2023-04-27T06:07:57;99374.41;;;16.93;nan
43814;BME280;29669;55.706;37.656;2023-04-27T06:10:25;99379.38;;;17.02;nan
43814;BME280;29669;55.706;37.656;2023-04-27T06:12:53;99370.72;;;17.01;nan
43814;BME280;29669;55.706;37.656;2023-04-27T06:15:21;99373.28;;;17.08;nan
43814;BME280;29669;55.706;37.656;2023-04-27T06:17:49;99368.94;;;17.20;nan
43814;BME280;29669;55.706;37.656;2023-04-27T06:20:16;99371.09;;;17.29;nan
43814;BME280;29669;55.706;37.656;2023-04-27T06:22:44;99385.38;;;17.33;nan
43814;BME280;29669;55.706;37.656;2023-04-27T06:25:13;99385.31;;;17.40;nan
43814;BME280;29669;55.706;37.656;2023-04-27T06:27:43;99388.50;;;17.48;nan
43814;BME280;29669;55.706;37.656;2023-04-27T06:30:11;99386.97;;;17.59;nan
43814;BME280;29669;55.706;37.656;2023-04-27T06:32:39;99385.09;;;17.66;nan
43814;BME280;29669;55.706;37.656;2023-04-27T06:35:07;99387.22;;;17.75;nan
43814;BME280;29669;55.706;37.656;2023-04-27T06:37:35;99389.19;;;17.80;nan
43814;BME280;29669;55.706;37.656;2023-04-27T06:40:03;99389.69;;;17.88;nan
43814;BME280;29669;55.706;37.656;2023-04-27T06:42:31;99395.09;;;17.94;nan
43814;BME280;29669;55.706;37.656;2023-04-27T06:44:59;99386.94;;;18.02;nan
43814;BME280;29669;55.706;37.656;2023-04-27T06:47:26;99396.34;;;18.09;nan
43814;BME280;29669;55.706;37.656;2023-04-27T06:49:55;99390.06;;;18.10;nan
43814;BME280;29669;55.706;37.656;2023-04-27T06:52:22;99386.34;;;18.18;nan
43814;BME280;29669;55.706;37.656;2023-04-27T06:54:50;99383.19;;;18.27;nan
43814;BME280;29669;55.706;37.656;2023-04-27T06:57:17;99388.56;;;18.32;nan
43814;BME280;29669;55.706;37.656;2023-04-27T06:59:45;99388.91;;;18.36;nan
43814;BME280;29669;55.706;37.656;2023-04-27T07:02:13;99394.25;;;18.47;nan
43814;BME280;29669;55.706;37.656;2023-04-27T07:04:41;99396.47;;;18.50;nan
43814;BME280;29669;55.706;37.656;2023-04-27T07:07:09;99392.94;;;18.56;nan
43814;BME280;29669;55.706;37.656;2023-04-27T07:09:37;99393.66;;;18.63;nan
43814;BME280;29669;55.706;37.656;2023-04-27T07:12:05;99387.94;;;18.66;nan
43814;BME280;29669;55.706;37.656;2023-04-27T07:14:33;99396.63;;;18.67;nan
43814;BME280;29669;55.706;37.656;2023-04-27T07:17:01;99402.69;;;18.67;nan
43814;BME280;29669;55.706;37.656;2023-04-27T07:19:28;99381.22;;;18.70;nan
43814;BME280;29669;55.706;37.656;2023-04-27T07:21:56;99381.31;;;18.75;nan
43814;BME280;29669;55.706;37.656;2023-04-27T07:24:27;99390.94;;;18.82;nan
43814;BME280;29669;55.706;37.656;2023-04-27T07:26:56;99397.38;;;18.86;nan
43814;BME280;29669;55.706;37.656;2023-04-27T07:29:24;99393.38;;;18.95;nan
43814;BME280;29669;55.706;37.656;2023-04-27T07:31:54;99387.56;;;19.04;nan
43814;BME280;29669;55.706;37.656;2023-04-27T07:34:22;99392.28;;;19.14;nan
43814;BME280;29669;55.706;37.656;2023-04-27T07:36:51;99397.56;;;19.25;nan
43814;BME280;29669;55.706;37.656;2023-04-27T07:39:20;99394.38;;;19.35;nan
43814;BME280;29669;55.706;37.656;2023-04-27T07:41:48;99394.97;;;19.48;nan
43814;BME280;29669;55.706;37.656;2023-04-27T07:44:16;99400.56;;;19.52;nan
43814;BME280;29669;55.706;37.656;2023-04-27T07:46:53;99402.19;;;19.53;nan
43814;BME280;29669;55.706;37.656;2023-04-27T07:49:25;99401.38;;;19.52;nan
43814;BME280;29669;55.706;37.656;2023-04-27T07:51:52;99405.38;;;19.55;nan
43814;BME280;29669;55.706;37.656;2023-04-27T07:54:20;99407.56;;;19.58;nan
43814;BME280;29669;55.706;37.656;2023-04-27T07:56:48;99409.72;;;19.61;nan
43814;BME280;29669;55.706;37.656;2023-04-27T07:59:15;99412.94;;;19.63;nan
43814;BME280;29669;55.706;37.656;2023-04-27T08:01:46;99405.59;;;19.65;nan
43814;BME280;29669;55.706;37.656;2023-04-27T08:04:13;99407.81;;;19.68;nan
43814;BME280;29669;55.706;37.656;2023-04-27T08:06:42;99404.00;;;19.76;nan
43814;BME280;29669;55.706;37.656;2023-04-27T08:09:13;99409.16;;;19.82;nan
43814;BME280;29669;55.706;37.656;2023-04-27T08:11:42;99406.41;;;19.89;nan
43814;BME280;29669;55.706;37.656;2023-04-27T08:14:09;99403.53;;;19.90;nan
43814;BME280;29669;55.706;37.656;2023-04-27T08:16:43;99405.34;;;19.90;nan
43814;BME280;29669;55.706;37.656;2023-04-27T08:19:11;99400.91;;;19.90;nan
43814;BME280;29669;55.706;37.656;2023-04-27T08:21:39;99397.91;;;19.98;nan
43814;BME280;29669;55.706;37.656;2023-04-27T08:24:07;99412.31;;;20.07;nan
43814;BME280;29669;55.706;37.656;2023-04-27T08:26:35;99403.50;;;20.13;nan
43814;BME280;29669;55.706;37.656;2023-04-27T08:29:03;99400.38;;;20.16;nan
43814;BME280;29669;55.706;37.656;2023-04-27T08:31:41;99397.09;;;20.21;nan
43814;BME280;29669;55.706;37.656;2023-04-27T08:34:10;99395.19;;;20.33;nan
43814;BME280;29669;55.706;37.656;2023-04-27T08:36:51;99399.97;;;20.47;nan
43814;BME280;29669;55.706;37.656;2023-04-27T08:39:20;99390.72;;;20.61;nan
43814;BME280;29669;55.706;37.656;2023-04-27T08:41:48;99396.66;;;20.69;nan
43814;BME280;29669;55.706;37.656;2023-04-27T08:44:16;99386.44;;;20.72;nan
43814;BME280;29669;55.706;37.656;2023-04-27T08:46:44;99396.03;;;20.78;nan
43814;BME280;29669;55.706;37.656;2023-04-27T08:49:12;99385.28;;;20.96;nan
43814;BME280;29669;55.706;37.656;2023-04-27T08:51:42;99391.47;;;21.18;nan
43814;BME280;29669;55.706;37.656;2023-04-27T08:54:10;99386.66;;;21.32;nan
43814;BME280;29669;55.706;37.656;2023-04-27T08:56:38;99389.16;;;21.38;nan
43814;BME280;29669;55.706;37.656;2023-04-27T08:59:13;99391.53;;;21.40;nan
43814;BME280;29669;55.706;37.656;2023-04-27T09:01:46;99392.09;;;21.42;nan
43814;BME280;29669;55.706;37.656;2023-04-27T09:04:15;99400.50;;;21.39;nan
43814;BME280;29669;55.706;37.656;2023-04-27T09:06:44;99399.94;;;21.37;nan
43814;BME280;29669;55.706;37.656;2023-04-27T09:09:22;99390.41;;;21.36;nan
43814;BME280;29669;55.706;37.656;2023-04-27T09:11:51;99392.88;;;21.42;nan
43814;BME280;29669;55.706;37.656;2023-04-27T09:14:21;99397.94;;;21.44;nan
43814;BME280;29669;55.706;37.656;2023-04-27T09:16:56;99393.63;;;21.38;nan
43814;BME280;29669;55.706;37.656;2023-04-27T09:19:27;99391.69;;;21.33;nan
43814;BME280;29669;55.706;37.656;2023-04-27T09:22:09;99405.00;;;21.38;nan
43814;BME280;29669;55.706;37.656;2023-04-27T09:25:00;99397.53;;;21.35;nan
43814;BME280;29669;55.706;37.656;2023-04-27T09:27:29;99396.16;;;21.33;nan
43814;BME280;29669;55.706;37.656;2023-04-27T09:29:57;99389.06;;;21.33;nan
43814;BME280;29669;55.706;37.656;2023-04-27T09:32:24;99390.97;;;21.38;nan
43814;BME280;29669;55.706;37.656;2023-04-27T09:34:52;99383.75;;;21.50;nan
43814;BME280;29669;55.706;37.656;2023-04-27T09:37:21;99390.59;;;21.68;nan
43814;BME280;29669;55.706;37.656;2023-04-27T09:39:49;99383.84;;;21.77;nan
43814;BME280;29669;55.706;37.656;2023-04-27T09:42:17;99388.03;;;21.89;nan
43814;BME280;29669;55.706;37.656;2023-04-27T09:44:45;99376.28;;;22.02;nan
43814;BME280;29669;55.706;37.656;2023-04-27T09:47:16;99379.78;;;22.07;nan
43814;BME280;29669;55.706;37.656;2023-04-27T09:49:47;99381.72;;;22.12;nan
43814;BME280;29669;55.706;37.656;2023-04-27T09:52:24;99379.06;;;22.12;nan
43814;BME280;29669;55.706;37.656;2023-04-27T09:54:56;99380.94;;;22.16;nan
43814;BME280;29669;55.706;37.656;2023-04-27T09:57:39;99394.00;;;22.23;nan
43814;BME280;29669;55.706;37.656;2023-04-27T10:03:46;99395.97;;;22.32;nan
43814;BME280;29669;55.706;37.656;2023-04-27T10:08:41;99399.06;;;22.29;nan
43814;BME280;29669;55.706;37.656;2023-04-27T10:11:15;99395.53;;;22.19;nan
43814;BME280;29669;55.706;37.656;2023-04-27T10:13:53;99392.22;;;22.28;nan
43814;BME280;29669;55.706;37.656;2023-04-27T10:16:21;99390.78;;;22.42;nan
43814;BME280;29669;55.706;37.656;2023-04-27T10:18:58;99394.31;;;22.53;nan
43814;BME280;29669;55.706;37.656;2023-04-27T10:21:27;99394.16;;;22.60;nan
43814;BME280;29669;55.706;37.656;2023-04-27T10:23:54;99395.88;;;22.71;nan
43814;BME280;29669;55.706;37.656;2023-04-27T10:26:24;99400.66;;;22.74;nan
43814;BME280;29669;55.706;37.656;2023-04-27T10:29:06;99394.91;;;22.82;nan
43814;BME280;29669;55.706;37.656;2023-04-27T10:31:34;99386.97;;;22.82;nan
43814;BME280;29669;55.706;37.656;2023-04-27T10:34:10;99392.97;;;22.72;nan
43814;BME280;29669;55.706;37.656;2023-04-27T10:36:39;99393.16;;;22.66;nan
43814;BME280;29669;55.706;37.656;2023-04-27T10:39:21;99391.56;;;22.65;nan
43814;BME280;29669;55.706;37.656;2023-04-27T10:41:56;99396.00;;;22.86;nan
43814;BME280;29669;55.706;37.656;2023-04-27T10:44:30;99397.72;;;23.02;nan
43814;BME280;29669;55.706;37.656;2023-04-27T10:47:00;99388.06;;;23.17;nan
43814;BME280;29669;55.706;37.656;2023-04-27T10:49:29;99384.34;;;23.18;nan
43814;BME280;29669;55.706;37.656;2023-04-27T10:51:58;99390.41;;;23.14;nan
43814;BME280;29669;55.706;37.656;2023-04-27T10:54:29;99395.38;;;23.05;nan
43814;BME280;29669;55.706;37.656;2023-04-27T10:57:09;99398.00;;;23.05;nan
43814;BME280;29669;55.706;37.656;2023-04-27T10:59:51;99401.22;;;23.07;nan
43814;BME280;29669;55.706;37.656;2023-04-27T11:02:27;99396.13;;;23.01;nan
43814;BME280;29669;55.706;37.656;2023-04-27T11:04:55;99402.06;;;22.86;nan
43814;BME280;29669;55.706;37.656;2023-04-27T11:07:24;99416.41;;;22.64;nan
43814;BME280;29669;55.706;37.656;2023-04-27T11:09:53;99420.88;;;22.36;nan
43814;BME280;29669;55.706;37.656;2023-04-27T11:12:21;99422.50;;;21.99;nan
43814;BME280;29669;55.706;37.656;2023-04-27T11:14:48;99431.09;;;21.73;nan
43814;BME280;29669;55.706;37.656;2023-04-27T11:17:27;99443.28;;;21.41;nan
43814;BME280;29669;55.706;37.656;2023-04-27T11:19:55;99456.50;;;21.24;nan
43814;BME280;29669;55.706;37.656;2023-04-27T11:22:23;99451.38;;;21.18;nan
43814;BME280;29669;55.706;37.656;2023-04-27T11:24:51;99455.22;;;21.27;nan
43814;BME280;29669;55.706;37.656;2023-04-27T11:27:20;99447.69;;;21.69;nan
43814;BME280;29669;55.706;37.656;2023-04-27T11:29:49;99434.81;;;22.32;nan
43814;BME280;29669;55.706;37.656;2023-04-27T11:32:21;99445.66;;;22.79;nan
43814;BME280;29669;55.706;37.656;2023-04-27T11:34:51;99445.41;;;23.33;nan
43814;BME280;29669;55.706;37.656;2023-04-27T11:37:24;99443.56;;;23.71;nan
43814;BME280;29669;55.706;37.656;2023-04-27T11:39:53;99438.44;;;24.01;nan
43814;BME280;29669;55.706;37.656;2023-04-27T11:42:23;99436.97;;;24.20;nan
43814;BME280;29669;55.706;37.656;2023-04-27T11:44:56;99444.72;;;24.42;nan
43814;BME280;29669;55.706;37.656;2023-04-27T11:47:29;99430.53;;;24.78;nan
43814;BME280;29669;55.706;37.656;2023-04-27T11:49:59;99438.00;;;25.06;nan
43814;BME280;29669;55.706;37.656;2023-04-27T11:52:31;99429.00;;;25.17;nan
43814;BME280;29669;55.706;37.656;2023-04-27T11:55:00;99421.53;;;25.24;nan
43814;BME280;29669;55.706;37.656;2023-04-27T11:57:34;99420.75;;;25.24;nan
43814;BME280;29669;55.706;37.656;2023-04-27T12:00:05;99427.38;;;25.01;nan
43814;BME280;29669;55.706;37.656;2023-04-27T12:02:42;99418.59;;;24.85;nan
43814;BME280;29669;55.706;37.656;2023-04-27T12:05:10;99410.91;;;24.99;nan
43814;BME280;29669;55.706;37.656;2023-04-27T12:07:40;99419.44;;;25.11;nan
43814;BME280;29669;55.706;37.656;2023-04-27T12:10:08;99409.34;;;25.13;nan
43814;BME280;29669;55.706;37.656;2023-04-27T12:12:36;99409.06;;;25.09;nan
43814;BME280;29669;55.706;37.656;2023-04-27T12:15:22;99400.84;;;24.96;nan
43814;BME280;29669;55.706;37.656;2023-04-27T12:17:50;99406.94;;;24.91;nan
43814;BME280;29669;55.706;37.656;2023-04-27T12:20:25;99404.25;;;24.76;nan
43814;BME280;29669;55.706;37.656;2023-04-27T12:22:53;99394.13;;;24.58;nan
43814;BME280;29669;55.706;37.656;2023-04-27T12:25:20;99399.56;;;24.26;nan
43814;BME280;29669;55.706;37.656;2023-04-27T12:27:48;99394.81;;;24.18;nan
43814;BME280;29669;55.706;37.656;2023-04-27T12:30:16;99400.06;;;24.13;nan
43814;BME280;29669;55.706;37.656;2023-04-27T12:32:44;99395.78;;;24.07;nan
43814;BME280;29669;55.706;37.656;2023-04-27T12:35:12;99395.84;;;24.17;nan
43814;BME280;29669;55.706;37.656;2023-04-27T12:37:40;99384.78;;;24.46;nan
43814;BME280;29669;55.706;37.656;2023-04-27T12:40:09;99384.63;;;25.28;nan
43814;BME280;29669;55.706;37.656;2023-04-27T12:42:36;99377.16;;;26.34;nan
43814;BME280;29669;55.706;37.656;2023-04-27T12:45:05;99377.84;;;27.27;nan
43814;BME280;29669;55.706;37.656;2023-04-27T12:47:33;99385.59;;;28.23;nan
43814;BME280;29669;55.706;37.656;2023-04-27T12:50:04;99381.81;;;29.17;nan
43814;BME280;29669;55.706;37.656;2023-04-27T12:52:32;99374.31;;;29.92;nan
43814;BME280;29669;55.706;37.656;2023-04-27T12:55:00;99372.31;;;30.60;nan
43814;BME280;29669;55.706;37.656;2023-04-27T12:57:29;99365.22;;;30.42;nan
43814;BME280;29669;55.706;37.656;2023-04-27T12:59:58;99375.91;;;29.20;nan
43814;BME280;29669;55.706;37.656;2023-04-27T13:02:30;99374.69;;;28.01;nan
43814;BME280;29669;55.706;37.656;2023-04-27T13:04:58;99372.25;;;28.23;nan
43814;BME280;29669;55.706;37.656;2023-04-27T13:07:26;99373.22;;;29.79;nan
43814;BME280;29669;55.706;37.656;2023-04-27T13:09:54;99371.25;;;31.05;nan
43814;BME280;29669;55.706;37.656;2023-04-27T13:12:23;99373.22;;;31.83;nan
43814;BME280;29669;55.706;37.656;2023-04-27T13:14:50;99367.19;;;32.34;nan
43814;BME280;29669;55.706;37.656;2023-04-27T13:17:19;99360.25;;;32.67;nan
43814;BME280;29669;55.706;37.656;2023-04-27T13:19:47;99368.47;;;32.79;nan
43814;BME280;29669;55.706;37.656;2023-04-27T13:22:15;99360.69;;;33.12;nan
43814;BME280;29669;55.706;37.656;2023-04-27T13:24:45;99369.75;;;33.54;nan
43814;BME280;29669;55.706;37.656;2023-04-27T13:27:13;99358.06;;;33.79;nan